Brisbane, Queensland, Australia, Latitude 27°S 23' 52", Longitude 152° E 55' 35", Elevation 76 m

At: Sun 20 Oct 2019 11:10:03 am, Temperature: 27.8 °C, Humidity: 30 %, Wind speed: 6 km/h, Wind Gust: 10 km/h, Rain today: 0.2 mm, MSLP: 1017.03 hPa

New beta website from 10 years of weather station data. Please contact us if you find issues or like to provide feedback.

Recent Observations

This page presents the weather data from the last 72 hours at 30 minute intervals.

Last updated at 11:10:03 am AEST on Sun 20 October 2019.

Note there are currently issues with this page.

Last 24 hours
Date/Time(AEST) Temp. ( °C) Dew Point ( °C) Relative Humidity (%) Appararent Temp. ( °C) Wind Direction Wind Speed (kph) Wind Gust (kph) Wind Speed (kts) Wind Gust (kts) MSL Pressure (hPa) Rain since midnight (mm)
20/10 11:10 am 27.8 8.6 30 26.3 SE 6 10 3 5 1017.03 0.2
20/10 10:40 am 27.2 11.2 37 24.8 ESE 4 10 2 5 1017.10 0.2
20/10 10:10 am 26.8 9.6 34 23.9 SSW 4 14 2 8 1017.51 0.2
20/10 9:40 am 25.4 8.8 35 21.6 SSW 5 12 3 6 1017.61 0.2
20/10 9:10 am 24.4 11.3 44 20.6 S 6 14 3 8 1017.85 0.2
20/10 8:40 am 22.2 16.0 68 18.6 SE 8 15 4 8 1017.91 0.2
20/10 8:10 am 21.7 15.3 67 23.4 CALM 0 4 0 2 1016.90 0.2
20/10 7:40 am 17.3 15.8 91 19.2 CALM 0 0 0 0 1016.66 0.2
20/10 7:10 am 15.8 14.7 93 17.3 CALM 0 0 0 0 1016.32 0.2
20/10 6:40 am 14.6 13.3 92 15.6 CALM 0 2 0 1 1016.15 0.2
20/10 6:10 am 14.1 12.8 92 15 CALM 0 0 0 0 1015.95 0.2
20/10 5:40 am 14.2 12.9 92 14.4 W 1 2 1 1 1015.41 0.2
20/10 5:10 am 14.3 12.9 91 13.1 WSW 3 8 2 4 1015.31 0.2
20/10 4:40 am 14.4 13.2 92 15.4 CALM 0 4 0 2 1014.93 0.2
20/10 4:10 am 14.6 13.2 91 14.9 SW 1 4 1 2 1014.90 0.2
20/10 3:40 am 15.3 13.8 91 16.5 CALM 0 0 0 0 1014.56 0.2
20/10 3:10 am 15.6 14.1 91 16.9 CALM 0 0 0 0 1014.60 0.2
20/10 2:40 am 16.4 15.0 91 18 CALM 0 0 0 0 1014.39 0.2
20/10 2:10 am 17.1 15.6 91 18.9 CALM 0 0 0 0 1014.36 0.0
20/10 1:40 am 17.6 16.1 91 18.9 SW 1 4 1 2 1014.43 0.0
20/10 1:10 am 17.8 16.3 91 18.5 CALM 2 0 1 0 1014.73 0.0
20/10 12:40 am 18.7 17.2 91 20.5 SW 1 6 1 3 1015.00 0.0
20/10 12:10 am 18.8 17.5 92 21.4 CALM 0 0 0 0 1015.17 0.0
19/10 11:40 pm 18.6 17.1 91 21 CALM 0 0 0 0 1015.10 8.2
19/10 11:10 pm 19.1 17.6 91 21.7 CALM 0 0 0 0 1015.00 8.2
19/10 10:40 pm 19.6 18.0 91 22.4 CALM 0 0 0 0 1014.80 8.2
19/10 10:10 pm 19.6 17.9 90 22.4 CALM 0 0 0 0 1014.97 8.2
19/10 9:40 pm 19.8 18.1 90 22.6 CALM 0 0 0 0 1014.97 8.2
19/10 9:10 pm 19.8 17.8 88 22.5 CALM 0 0 0 0 1015.04 8.2
19/10 8:40 pm 20.3 18.0 87 23.1 CALM 0 0 0 0 1015.04 8.0
19/10 8:10 pm 20.8 18.5 87 23.8 CALM 2 6 1 3 1014.77 8.0
19/10 7:40 pm 21.2 19.0 87 23 NNE 2 6 1 3 1014.77 8.0
19/10 7:10 pm 21.3 19.1 87 21.1 N 5 14 3 8 1014.60 8.0
19/10 6:40 pm 21.4 18.9 86 21.1 NNE 5 14 3 8 1014.02 8.0
19/10 6:10 pm 21.7 19.4 87 22.3 NE 4 12 2 6 1013.58 8.0
19/10 5:40 pm 22.1 19.6 86 18.6 N 10 19 5 10 1012.97 8.0
19/10 5:10 pm 22.2 19.7 86 21.6 ENE 6 8 3 4 1012.43 8.0
19/10 4:40 pm 23.3 20.0 82 22.1 N 7 17 4 9 1013.21 8.0
19/10 4:10 pm 23.9 19.6 77 19 NNE 12 19 6 10 1013.04 6.8
19/10 3:40 pm 24.5 19.3 73 21.6 NNE 9 19 5 10 1013.21 6.8
19/10 3:10 pm 25.3 20.1 73 24.8 NE 6 8 3 4 1012.94 6.8
19/10 2:40 pm 25.6 20.6 74 24 NNW 8 10 4 5 1013.21 6.8
19/10 2:10 pm 24.2 20.1 78 23.8 NNE 6 12 3 6 1013.68 6.8
19/10 1:40 pm 24.2 19.2 74 25.5 N 3 8 2 4 1014.46 6.8
19/10 1:10 pm 23.6 19.1 76 24.8 SW 3 6 2 3 1015.14 6.8
19/10 12:40 pm 22.3 18.7 80 23.3 N 3 10 2 5 1015.37 6.8
19/10 12:10 pm 20.9 19.2 90 22.8 E 2 4 1 2 1015.71 6.8
19/10 11:40 am 21.2 16.8 76 21.4 WSW 3 6 2 3 1016.90 1.4
24 to 48 hours ago
Date/Time(AEST) Temp. °C Dew Point °C Relative Humidity % Appararent Temp. °C Wind Direction Wind Speed (kph) Wind Gust (kph) Wind Speed (kts) Wind Gust (kts) MSL Pressure (hPa) Rain since midnight (mm)
19/10 11:10 am 22.1 16.6 71 23.6 SW 1 8 1 4 1016.97 0.2
19/10 10:40 am 21.4 16.4 73 19.3 SSW 6 12 3 6 1017.47 0.2
19/10 10:10 am 21.9 16.8 73 22.1 SSW 3 12 2 6 1017.81 0.2
19/10 9:40 am 22.3 16.3 69 22.3 SSW 3 6 2 3 1017.58 0.0
19/10 9:10 am 22.6 15.6 65 23.8 CALM 1 0 1 0 1018.15 0.0
19/10 8:40 am 22.6 15.7 65 21.7 S 4 6 2 3 1018.29 0.0
19/10 8:10 am 21.6 15.4 68 21.3 S 3 6 2 3 1018.42 0.0
19/10 7:40 am 20.7 15.1 70 20.2 SSW 3 6 2 3 1018.46 0.0
19/10 7:10 am 19.9 14.7 72 20 S 2 6 1 3 1018.29 0.0
19/10 6:40 am 18.8 14.5 76 19.5 SSW 1 8 1 4 1018.49 0.0
19/10 6:10 am 18.0 14.3 79 18 SSW 2 8 1 4 1018.25 0.0
19/10 5:40 am 17.4 13.8 79 18.6 CALM 0 0 0 0 1017.85 0.0
19/10 5:10 am 17.4 13.8 79 18.6 CALM 0 0 0 0 1016.90 0.0
19/10 4:40 am 17.4 13.8 79 18.6 CALM 0 2 0 1 1016.70 0.0
19/10 4:10 am 17.3 13.7 79 18.4 CALM 0 2 0 1 1016.83 0.0
19/10 3:40 am 17.4 13.4 77 18.4 CALM 0 2 0 1 1016.86 0.0
19/10 3:10 am 17.7 13.4 76 18.8 CALM 0 0 0 0 1017.10 0.0
19/10 2:40 am 18.3 13.8 75 18.1 SSW 2 2 1 1 1017.27 0.0
19/10 2:10 am 18.9 13.9 73 20.1 CALM 0 6 0 3 1017.37 0.0
19/10 1:40 am 19.3 14.4 73 20.7 CALM 0 0 0 0 1017.58 0.0
19/10 1:10 am 19.2 14.0 72 20.5 CALM 0 0 0 0 1017.58 0.0
19/10 12:40 am 19.1 13.9 72 20.3 CALM 0 4 0 2 1017.78 0.0
19/10 12:10 am 19.4 13.8 70 20.6 CALM 0 0 0 0 1017.91 0.0
18/10 11:40 pm 19.6 14.0 70 20.9 CALM 0 0 0 0 1018.22 0.0
18/10 11:10 pm 19.4 14.0 71 20.7 CALM 0 0 0 0 1018.35 0.0
18/10 10:40 pm 19.3 13.9 71 20.5 CALM 0 0 0 0 1018.56 0.0
18/10 10:10 pm 19.3 13.7 70 19.8 NE 1 4 1 2 1018.32 0.0
18/10 9:40 pm 19.8 13.7 68 21 CALM 0 0 0 0 1018.39 0.0
18/10 9:10 pm 20.1 13.7 67 21.3 CALM 0 2 0 1 1018.49 0.0
18/10 8:40 pm 20.1 13.7 67 21.3 CALM 0 2 0 1 1018.15 0.0
18/10 8:10 pm 20.5 13.7 65 21 ESE 3 8 2 4 1017.64 0.0
18/10 7:40 pm 20.9 13.6 63 19.9 ESE 3 8 2 4 1017.64 0.0
18/10 7:10 pm 21.3 13.7 62 20.4 E 3 12 2 6 1017.51 0.0
18/10 6:40 pm 21.6 13.7 61 19.3 E 5 17 3 9 1016.83 0.0
18/10 6:10 pm 22.1 13.4 58 19 ESE 6 12 3 6 1016.02 0.0
18/10 5:40 pm 22.7 13.5 56 19.6 ENE 6 15 3 8 1015.78 0.0
18/10 5:10 pm 23.6 13.4 53 19.1 E 8 17 4 9 1015.41 0.0
18/10 4:40 pm 24.5 13.7 51 20.1 ENE 8 17 4 9 1014.83 0.0
18/10 4:10 pm 25.1 13.3 48 19.1 E 10 21 5 11 1014.90 0.0
18/10 3:40 pm 25.9 13.8 47 17.3 NE 14 21 8 11 1014.80 0.0
18/10 3:10 pm 26.3 13.8 46 19.1 ENE 12 23 6 12 1014.87 0.0
18/10 2:40 pm 26.5 13.6 45 21.3 ENE 9 19 5 10 1015.17 0.0
18/10 2:10 pm 26.8 14.2 46 20.4 ENE 11 19 6 10 1015.41 0.0
18/10 1:40 pm 27.1 14.2 45 21.4 E 10 19 5 10 1015.85 0.0
18/10 1:10 pm 26.7 14.1 46 21 E 10 19 5 10 1016.19 0.0
18/10 12:40 pm 27.0 14.1 45 19.9 E 12 23 6 12 1016.66 0.0
18/10 12:10 pm 27.3 14.4 45 21 E 11 23 6 12 1016.90 0.0
18/10 11:40 am 27.4 14.7 46 21.2 ESE 11 19 6 10 1016.97 0.0
48 to 72 hours ago
Date/Time(AEST) Temp. °C Dew Point °C Relative Humidity % Appararent Temp. °C Wind Direction Wind Speed (kph) Wind Gust (kph) Wind Speed (kts) Wind Gust (kts) MSL Pressure (hPa) Rain since midnight (mm)
18/10 11:10 am 27.8 13.7 42 23.4 ENE 8 19 4 10 1017.37 0.0
18/10 10:40 am 27.3 14.6 46 23.9 ESE 7 14 4 8 1017.47 0.0
18/10 10:10 am 25.5 14.0 49 20.5 SE 9 14 5 8 1017.78 0.0
18/10 9:40 am 25.8 14.9 51 21.1 ESE 9 15 5 8 1017.37 0.0
18/10 9:10 am 25.7 14.8 51 20.9 ESE 9 15 5 8 1017.44 0.0
18/10 8:40 am 24.4 15.3 57 19.8 SSE 9 21 5 11 1017.51 0.0
18/10 8:10 am 24.7 17.2 63 22.9 ESE 6 14 3 8 1017.20 0.0
18/10 7:40 am 22.7 17.2 71 20.2 ESE 7 15 4 8 1016.76 0.0
18/10 7:10 am 21.7 16.8 74 17.7 SE 9 14 5 8 1016.59 0.0
18/10 6:40 am 19.2 15.9 81 19 S 3 12 2 6 1016.26 0.0
18/10 6:10 am 17.1 14.3 84 18.5 CALM 0 0 0 0 1015.51 0.0
18/10 5:40 am 16.7 13.9 84 18 CALM 0 0 0 0 1014.83 0.0
18/10 5:10 am 16.8 13.9 83 18 CALM 0 8 0 4 1013.99 0.0
18/10 4:40 am 17.3 14.4 83 18.7 CALM 0 0 0 0 1013.21 0.0
18/10 4:10 am 17.9 14.8 82 19.4 CALM 0 0 0 0 1012.80 0.0
18/10 3:40 am 18.7 15.0 79 16.8 SSW 5 6 3 3 1012.60 0.0
18/10 3:10 am 17.9 15.0 83 16 SW 5 8 3 4 1012.70 0.0
18/10 2:40 am 18.1 16.4 90 20.3 CALM 0 0 0 0 1012.80 0.0
18/10 2:10 am 18.3 16.6 90 20.5 CALM 0 2 0 1 1012.90 0.0
18/10 1:40 am 18.5 16.8 90 20.8 CALM 0 4 0 2 1012.94 0.0
18/10 1:10 am 18.6 16.7 89 20.9 CALM 0 0 0 0 1013.34 0.0
18/10 12:40 am 18.7 16.5 87 20.9 CALM 0 0 0 0 1013.55 0.0
18/10 12:10 am 19.1 16.7 86 21.4 CALM 0 2 0 1 1013.55 0.0
17/10 11:40 pm 19.3 16.7 85 21.6 CALM 0 0 0 0 1013.88 6.0
17/10 11:10 pm 19.6 17.0 85 21.3 WNW 1 10 1 5 1014.19 6.0
17/10 10:40 pm 19.8 17.2 85 21.6 E 1 2 1 1 1014.09 6.0
17/10 10:10 pm 19.7 16.9 84 21.3 NE 1 8 1 4 1013.82 6.0
17/10 9:40 pm 19.9 17.2 84 22.3 CALM 0 0 0 0 1013.31 6.0
17/10 9:10 pm 20.2 17.2 83 22.7 CALM 0 0 0 0 1013.38 5.8
17/10 8:40 pm 20.6 17.6 83 21.1 NW 3 6 2 3 1013.31 5.8
17/10 8:10 pm 20.8 17.6 82 23.4 NNW 5 8 3 4 1012.46 5.8
17/10 7:40 pm 20.9 17.7 82 20.1 NNW 5 8 3 4 1012.46 5.8
17/10 7:10 pm 21.2 18.0 82 21.9 NW 3 6 2 3 1012.19 5.8
17/10 6:40 pm 21.4 18.0 81 20 N 6 10 3 5 1012.39 5.8
17/10 6:10 pm 21.7 18.5 82 23.3 NNE 2 2 1 1 1011.58 5.8
17/10 5:40 pm 21.7 18.1 80 22.4 NNE 3 6 2 3 1010.74 5.8
17/10 5:10 pm 22.2 17.5 75 22 E 4 8 2 4 1011.04 5.8
17/10 4:40 pm 27.1 16.7 53 18.2 WNW 16 23 9 12 1010.40 0.0
17/10 4:10 pm 28.1 17.3 52 20.8 NE 14 25 8 13 1007.59 0.0
17/10 3:40 pm 29.7 17.8 49 20.5 NE 17 25 9 13 1007.55 0.0
17/10 3:10 pm 29.4 17.9 50 16 NE 23 29 12 16 1007.82 0.0
17/10 2:40 pm 29.9 18.1 49 18.7 ENE 20 29 11 16 1008.30 0.0
17/10 2:10 pm 30.6 18.0 47 22.2 ENE 16 27 9 15 1009.14 0.0
17/10 1:40 pm 31.0 18.0 46 22.6 NE 16 25 9 13 1009.96 0.0
17/10 1:10 pm 32.1 17.5 42 26.3 ENE 12 25 6 13 1010.30 0.0
17/10 12:40 pm 31.9 16.3 39 24.2 NE 14 27 8 15 1010.70 0.0
17/10 12:10 pm 31.2 16.4 41 20 NE 19 21 10 11 1011.21 0.0
17/10 11:40 am 31.6 16.3 40 23.2 NNE 15 27 8 15 1012.02 0.0